sensor_id;sensor_type;location;lat;lon;timestamp;temperature;humidity
59923;DHT22;45778;51.142;3.732;2023-02-28T00:00:47;1.90;99.90
59923;DHT22;45778;51.142;3.732;2023-02-28T00:03:13;2.00;99.90
59923;DHT22;45778;51.142;3.732;2023-02-28T00:05:38;2.00;99.90
59923;DHT22;45778;51.142;3.732;2023-02-28T00:08:04;2.20;99.90
59923;DHT22;45778;51.142;3.732;2023-02-28T00:10:30;2.30;99.90
59923;DHT22;45778;51.142;3.732;2023-02-28T00:13:01;2.10;99.90
59923;DHT22;45778;51.142;3.732;2023-02-28T00:15:27;2.00;99.90
59923;DHT22;45778;51.142;3.732;2023-02-28T00:17:53;2.00;99.90
59923;DHT22;45778;51.142;3.732;2023-02-28T00:20:20;2.30;99.90
59923;DHT22;45778;51.142;3.732;2023-02-28T00:22:48;2.00;99.90
59923;DHT22;45778;51.142;3.732;2023-02-28T00:25:16;2.00;99.90
59923;DHT22;45778;51.142;3.732;2023-02-28T00:27:42;1.80;99.90
59923;DHT22;45778;51.142;3.732;2023-02-28T00:30:11;1.90;99.90
59923;DHT22;45778;51.142;3.732;2023-02-28T00:32:37;1.80;99.90
59923;DHT22;45778;51.142;3.732;2023-02-28T00:35:04;1.70;99.90
59923;DHT22;45778;51.142;3.732;2023-02-28T00:37:29;1.70;99.90
59923;DHT22;45778;51.142;3.732;2023-02-28T00:39:56;1.90;99.90
59923;DHT22;45778;51.142;3.732;2023-02-28T00:42:22;2.00;99.90
59923;DHT22;45778;51.142;3.732;2023-02-28T00:44:47;2.10;99.90
59923;DHT22;45778;51.142;3.732;2023-02-28T00:47:13;2.00;99.90
59923;DHT22;45778;51.142;3.732;2023-02-28T00:49:39;1.90;99.90
59923;DHT22;45778;51.142;3.732;2023-02-28T00:52:05;2.10;99.90
59923;DHT22;45778;51.142;3.732;2023-02-28T00:54:31;2.20;99.90
59923;DHT22;45778;51.142;3.732;2023-02-28T00:56:57;2.30;99.90
59923;DHT22;45778;51.142;3.732;2023-02-28T00:59:22;2.20;99.90
59923;DHT22;45778;51.142;3.732;2023-02-28T01:01:48;2.30;99.90
59923;DHT22;45778;51.142;3.732;2023-02-28T01:04:14;2.40;99.90
59923;DHT22;45778;51.142;3.732;2023-02-28T01:06:40;2.30;99.90
59923;DHT22;45778;51.142;3.732;2023-02-28T01:09:07;2.30;99.90
59923;DHT22;45778;51.142;3.732;2023-02-28T01:11:34;2.20;99.90
59923;DHT22;45778;51.142;3.732;2023-02-28T01:14:00;2.20;99.90
59923;DHT22;45778;51.142;3.732;2023-02-28T01:16:27;2.20;99.90
59923;DHT22;45778;51.142;3.732;2023-02-28T01:18:53;2.20;99.90
59923;DHT22;45778;51.142;3.732;2023-02-28T01:21:20;2.30;99.90
59923;DHT22;45778;51.142;3.732;2023-02-28T01:23:47;2.30;99.90
59923;DHT22;45778;51.142;3.732;2023-02-28T01:26:18;2.00;99.90
59923;DHT22;45778;51.142;3.732;2023-02-28T01:28:44;2.20;99.90
59923;DHT22;45778;51.142;3.732;2023-02-28T01:31:10;2.20;99.90
59923;DHT22;45778;51.142;3.732;2023-02-28T01:33:37;2.00;99.90
59923;DHT22;45778;51.142;3.732;2023-02-28T01:36:05;1.90;99.90
59923;DHT22;45778;51.142;3.732;2023-02-28T01:38:33;1.80;99.90
59923;DHT22;45778;51.142;3.732;2023-02-28T01:40:59;1.80;99.90
59923;DHT22;45778;51.142;3.732;2023-02-28T01:43:28;1.80;99.90
59923;DHT22;45778;51.142;3.732;2023-02-28T01:45:55;1.70;99.90
59923;DHT22;45778;51.142;3.732;2023-02-28T01:48:26;1.60;99.90
59923;DHT22;45778;51.142;3.732;2023-02-28T01:50:53;1.60;99.90
59923;DHT22;45778;51.142;3.732;2023-02-28T01:53:26;1.50;99.90
59923;DHT22;45778;51.142;3.732;2023-02-28T01:55:54;1.50;99.90
59923;DHT22;45778;51.142;3.732;2023-02-28T01:58:20;1.40;99.90
59923;DHT22;45778;51.142;3.732;2023-02-28T02:00:46;1.50;99.90
59923;DHT22;45778;51.142;3.732;2023-02-28T02:03:16;1.50;99.90
59923;DHT22;45778;51.142;3.732;2023-02-28T02:05:47;1.60;99.90
59923;DHT22;45778;51.142;3.732;2023-02-28T02:08:17;1.60;99.90
59923;DHT22;45778;51.142;3.732;2023-02-28T02:10:46;1.70;99.90
59923;DHT22;45778;51.142;3.732;2023-02-28T02:13:19;1.70;99.90
59923;DHT22;45778;51.142;3.732;2023-02-28T02:24:16;1.40;99.90
59923;DHT22;45778;51.142;3.732;2023-02-28T02:35:31;1.40;99.90
59923;DHT22;45778;51.142;3.732;2023-02-28T02:41:26;1.60;99.90
59923;DHT22;45778;51.142;3.732;2023-02-28T02:43:51;1.80;99.90
59923;DHT22;45778;51.142;3.732;2023-02-28T02:46:42;1.70;99.90
59923;DHT22;45778;51.142;3.732;2023-02-28T02:49:13;1.70;99.90
59923;DHT22;45778;51.142;3.732;2023-02-28T02:51:40;1.70;99.90
59923;DHT22;45778;51.142;3.732;2023-02-28T02:56:47;1.70;99.90
59923;DHT22;45778;51.142;3.732;2023-02-28T02:59:18;1.70;99.90
59923;DHT22;45778;51.142;3.732;2023-02-28T03:01:48;1.70;99.90
59923;DHT22;45778;51.142;3.732;2023-02-28T03:04:19;1.80;99.90
59923;DHT22;45778;51.142;3.732;2023-02-28T03:06:46;1.70;99.90
59923;DHT22;45778;51.142;3.732;2023-02-28T03:09:12;1.50;99.90
59923;DHT22;45778;51.142;3.732;2023-02-28T03:11:40;1.40;99.90
59923;DHT22;45778;51.142;3.732;2023-02-28T03:22:12;1.70;99.90
59923;DHT22;45778;51.142;3.732;2023-02-28T03:24:49;1.80;99.90
59923;DHT22;45778;51.142;3.732;2023-02-28T03:27:30;1.80;99.90
59923;DHT22;45778;51.142;3.732;2023-02-28T03:32:36;2.10;99.90
59923;DHT22;45778;51.142;3.732;2023-02-28T03:35:13;2.20;99.90
59923;DHT22;45778;51.142;3.732;2023-02-28T03:37:54;2.30;99.90
59923;DHT22;45778;51.142;3.732;2023-02-28T03:40:25;2.30;99.90
59923;DHT22;45778;51.142;3.732;2023-02-28T03:42:58;2.30;99.90
59923;DHT22;45778;51.142;3.732;2023-02-28T03:45:30;2.40;99.90
59923;DHT22;45778;51.142;3.732;2023-02-28T03:50:42;2.40;99.90
59923;DHT22;45778;51.142;3.732;2023-02-28T03:55:59;2.60;99.90
59923;DHT22;45778;51.142;3.732;2023-02-28T04:01:08;2.80;99.90
59923;DHT22;45778;51.142;3.732;2023-02-28T04:03:37;2.80;99.90
59923;DHT22;45778;51.142;3.732;2023-02-28T04:06:04;2.80;99.90
59923;DHT22;45778;51.142;3.732;2023-02-28T04:08:30;2.90;99.90
59923;DHT22;45778;51.142;3.732;2023-02-28T04:11:07;2.80;99.90
59923;DHT22;45778;51.142;3.732;2023-02-28T04:13:34;2.80;99.90
59923;DHT22;45778;51.142;3.732;2023-02-28T04:15:59;2.80;99.90
59923;DHT22;45778;51.142;3.732;2023-02-28T04:18:25;2.90;99.90
59923;DHT22;45778;51.142;3.732;2023-02-28T04:20:51;2.80;99.90
59923;DHT22;45778;51.142;3.732;2023-02-28T04:23:16;3.00;99.90
59923;DHT22;45778;51.142;3.732;2023-02-28T04:25:42;3.00;99.90
59923;DHT22;45778;51.142;3.732;2023-02-28T04:28:08;3.10;99.90
59923;DHT22;45778;51.142;3.732;2023-02-28T04:30:35;3.20;99.90
59923;DHT22;45778;51.142;3.732;2023-02-28T04:33:01;3.20;99.90
59923;DHT22;45778;51.142;3.732;2023-02-28T04:35:27;3.20;99.90
59923;DHT22;45778;51.142;3.732;2023-02-28T04:37:52;3.10;99.90
59923;DHT22;45778;51.142;3.732;2023-02-28T04:40:18;3.10;99.90
59923;DHT22;45778;51.142;3.732;2023-02-28T04:42:44;3.20;99.90
59923;DHT22;45778;51.142;3.732;2023-02-28T04:45:10;3.30;99.90
59923;DHT22;45778;51.142;3.732;2023-02-28T04:47:36;3.20;99.90
59923;DHT22;45778;51.142;3.732;2023-02-28T04:50:02;3.50;99.90
59923;DHT22;45778;51.142;3.732;2023-02-28T04:52:29;3.50;99.90
59923;DHT22;45778;51.142;3.732;2023-02-28T04:54:54;3.50;99.90
59923;DHT22;45778;51.142;3.732;2023-02-28T04:57:20;3.40;99.90
59923;DHT22;45778;51.142;3.732;2023-02-28T04:59:46;3.60;99.90
59923;DHT22;45778;51.142;3.732;2023-02-28T05:02:12;3.50;99.90
59923;DHT22;45778;51.142;3.732;2023-02-28T05:04:37;3.50;99.90
59923;DHT22;45778;51.142;3.732;2023-02-28T05:07:03;3.60;99.90
59923;DHT22;45778;51.142;3.732;2023-02-28T05:09:29;3.60;99.90
59923;DHT22;45778;51.142;3.732;2023-02-28T05:11:55;3.70;99.90
59923;DHT22;45778;51.142;3.732;2023-02-28T05:14:21;3.70;99.90
59923;DHT22;45778;51.142;3.732;2023-02-28T05:16:47;3.70;99.90
59923;DHT22;45778;51.142;3.732;2023-02-28T05:19:13;3.70;99.90
59923;DHT22;45778;51.142;3.732;2023-02-28T05:21:41;3.80;99.90
59923;DHT22;45778;51.142;3.732;2023-02-28T05:24:10;3.80;99.90
59923;DHT22;45778;51.142;3.732;2023-02-28T05:26:38;3.80;99.90
59923;DHT22;45778;51.142;3.732;2023-02-28T05:29:04;3.70;99.90
59923;DHT22;45778;51.142;3.732;2023-02-28T05:31:31;3.50;99.90
59923;DHT22;45778;51.142;3.732;2023-02-28T05:33:56;3.50;99.90
59923;DHT22;45778;51.142;3.732;2023-02-28T05:36:23;3.50;99.90
59923;DHT22;45778;51.142;3.732;2023-02-28T05:38:49;3.70;99.90
59923;DHT22;45778;51.142;3.732;2023-02-28T05:41:16;3.60;99.90
59923;DHT22;45778;51.142;3.732;2023-02-28T05:43:42;3.60;99.90
59923;DHT22;45778;51.142;3.732;2023-02-28T05:46:09;3.70;99.90
59923;DHT22;45778;51.142;3.732;2023-02-28T05:48:36;3.70;99.90
59923;DHT22;45778;51.142;3.732;2023-02-28T05:51:03;3.70;99.90
59923;DHT22;45778;51.142;3.732;2023-02-28T05:53:30;3.70;99.90
59923;DHT22;45778;51.142;3.732;2023-02-28T05:55:56;3.80;99.90
59923;DHT22;45778;51.142;3.732;2023-02-28T05:58:21;3.90;99.90
59923;DHT22;45778;51.142;3.732;2023-02-28T06:00:48;3.90;99.90
59923;DHT22;45778;51.142;3.732;2023-02-28T06:03:14;3.90;99.90
59923;DHT22;45778;51.142;3.732;2023-02-28T06:05:40;3.90;99.90
59923;DHT22;45778;51.142;3.732;2023-02-28T06:08:05;3.90;99.90
59923;DHT22;45778;51.142;3.732;2023-02-28T06:10:33;3.90;99.90
59923;DHT22;45778;51.142;3.732;2023-02-28T06:13:05;3.90;99.90
59923;DHT22;45778;51.142;3.732;2023-02-28T06:15:31;3.90;99.90
59923;DHT22;45778;51.142;3.732;2023-02-28T06:17:57;3.90;99.90
59923;DHT22;45778;51.142;3.732;2023-02-28T06:20:24;4.00;99.90
59923;DHT22;45778;51.142;3.732;2023-02-28T06:22:50;4.00;99.90
59923;DHT22;45778;51.142;3.732;2023-02-28T06:25:17;3.90;99.90
59923;DHT22;45778;51.142;3.732;2023-02-28T06:27:43;3.90;99.90
59923;DHT22;45778;51.142;3.732;2023-02-28T06:30:10;3.90;99.90
59923;DHT22;45778;51.142;3.732;2023-02-28T06:32:36;3.80;99.90
59923;DHT22;45778;51.142;3.732;2023-02-28T06:35:02;3.80;99.90
59923;DHT22;45778;51.142;3.732;2023-02-28T06:37:30;3.80;99.90
59923;DHT22;45778;51.142;3.732;2023-02-28T06:39:55;3.90;99.90
59923;DHT22;45778;51.142;3.732;2023-02-28T06:42:22;3.90;99.90
59923;DHT22;45778;51.142;3.732;2023-02-28T06:44:50;4.00;99.90
59923;DHT22;45778;51.142;3.732;2023-02-28T06:47:16;4.10;99.90
59923;DHT22;45778;51.142;3.732;2023-02-28T06:49:42;4.00;99.90
59923;DHT22;45778;51.142;3.732;2023-02-28T06:52:08;3.90;99.90
59923;DHT22;45778;51.142;3.732;2023-02-28T06:54:36;3.90;99.90
59923;DHT22;45778;51.142;3.732;2023-02-28T06:57:02;3.90;99.90
59923;DHT22;45778;51.142;3.732;2023-02-28T06:59:28;3.90;99.90
59923;DHT22;45778;51.142;3.732;2023-02-28T07:01:54;4.10;99.90
59923;DHT22;45778;51.142;3.732;2023-02-28T07:04:21;4.20;99.90
59923;DHT22;45778;51.142;3.732;2023-02-28T07:06:46;4.20;99.90
59923;DHT22;45778;51.142;3.732;2023-02-28T07:09:12;4.10;99.90
59923;DHT22;45778;51.142;3.732;2023-02-28T07:11:39;4.10;99.90
59923;DHT22;45778;51.142;3.732;2023-02-28T07:14:06;4.20;99.90
59923;DHT22;45778;51.142;3.732;2023-02-28T07:16:32;4.50;99.90
59923;DHT22;45778;51.142;3.732;2023-02-28T07:18:58;4.30;99.90
59923;DHT22;45778;51.142;3.732;2023-02-28T07:21:24;4.20;99.90
59923;DHT22;45778;51.142;3.732;2023-02-28T07:23:50;4.30;99.90
59923;DHT22;45778;51.142;3.732;2023-02-28T07:26:19;4.40;99.90
59923;DHT22;45778;51.142;3.732;2023-02-28T07:28:47;4.40;99.90
59923;DHT22;45778;51.142;3.732;2023-02-28T07:31:13;4.50;99.90
59923;DHT22;45778;51.142;3.732;2023-02-28T07:33:42;4.60;99.90
59923;DHT22;45778;51.142;3.732;2023-02-28T07:36:11;4.60;99.90
59923;DHT22;45778;51.142;3.732;2023-02-28T07:38:41;4.60;99.90
59923;DHT22;45778;51.142;3.732;2023-02-28T07:41:07;4.70;99.90
59923;DHT22;45778;51.142;3.732;2023-02-28T07:43:34;4.60;99.90
59923;DHT22;45778;51.142;3.732;2023-02-28T07:46:08;4.50;99.90
59923;DHT22;45778;51.142;3.732;2023-02-28T07:48:35;4.60;99.90
59923;DHT22;45778;51.142;3.732;2023-02-28T07:51:01;4.70;99.90
59923;DHT22;45778;51.142;3.732;2023-02-28T07:53:28;4.70;99.90
59923;DHT22;45778;51.142;3.732;2023-02-28T07:55:58;4.70;99.90
59923;DHT22;45778;51.142;3.732;2023-02-28T07:58:25;4.80;99.90
59923;DHT22;45778;51.142;3.732;2023-02-28T08:00:51;4.80;99.90
59923;DHT22;45778;51.142;3.732;2023-02-28T08:03:19;4.80;99.90
59923;DHT22;45778;51.142;3.732;2023-02-28T08:05:45;4.90;99.90
59923;DHT22;45778;51.142;3.732;2023-02-28T08:08:11;4.90;99.90
59923;DHT22;45778;51.142;3.732;2023-02-28T08:10:37;4.90;99.90
59923;DHT22;45778;51.142;3.732;2023-02-28T08:13:02;4.80;99.90
59923;DHT22;45778;51.142;3.732;2023-02-28T08:15:28;4.80;99.90
59923;DHT22;45778;51.142;3.732;2023-02-28T08:17:54;4.90;99.90
59923;DHT22;45778;51.142;3.732;2023-02-28T08:20:22;4.90;99.90
59923;DHT22;45778;51.142;3.732;2023-02-28T08:22:48;4.90;99.90
59923;DHT22;45778;51.142;3.732;2023-02-28T08:25:14;5.10;99.90
59923;DHT22;45778;51.142;3.732;2023-02-28T08:27:40;5.10;99.90
59923;DHT22;45778;51.142;3.732;2023-02-28T08:30:06;5.10;99.90
59923;DHT22;45778;51.142;3.732;2023-02-28T08:32:33;5.10;99.90
59923;DHT22;45778;51.142;3.732;2023-02-28T08:34:59;5.10;99.90
59923;DHT22;45778;51.142;3.732;2023-02-28T08:37:25;5.10;99.90
59923;DHT22;45778;51.142;3.732;2023-02-28T08:39:50;5.30;99.90
59923;DHT22;45778;51.142;3.732;2023-02-28T08:42:16;5.30;99.90
59923;DHT22;45778;51.142;3.732;2023-02-28T08:44:42;5.40;99.90
59923;DHT22;45778;51.142;3.732;2023-02-28T08:47:08;5.20;99.90
59923;DHT22;45778;51.142;3.732;2023-02-28T08:49:33;5.20;99.90
59923;DHT22;45778;51.142;3.732;2023-02-28T08:51:59;5.20;99.90
59923;DHT22;45778;51.142;3.732;2023-02-28T08:54:25;5.30;99.90
59923;DHT22;45778;51.142;3.732;2023-02-28T08:56:50;5.40;99.90
59923;DHT22;45778;51.142;3.732;2023-02-28T08:59:16;5.40;99.90
59923;DHT22;45778;51.142;3.732;2023-02-28T09:01:42;5.50;99.90
59923;DHT22;45778;51.142;3.732;2023-02-28T09:04:09;5.60;99.90
59923;DHT22;45778;51.142;3.732;2023-02-28T09:06:36;5.80;99.90
59923;DHT22;45778;51.142;3.732;2023-02-28T09:09:02;6.00;99.90
59923;DHT22;45778;51.142;3.732;2023-02-28T09:11:29;5.90;99.90
59923;DHT22;45778;51.142;3.732;2023-02-28T09:13:55;6.10;99.90
59923;DHT22;45778;51.142;3.732;2023-02-28T09:16:21;6.10;99.90
59923;DHT22;45778;51.142;3.732;2023-02-28T09:18:46;6.20;99.90
59923;DHT22;45778;51.142;3.732;2023-02-28T09:21:15;6.20;99.90
59923;DHT22;45778;51.142;3.732;2023-02-28T09:23:42;6.20;99.90
59923;DHT22;45778;51.142;3.732;2023-02-28T09:26:11;6.00;99.90
59923;DHT22;45778;51.142;3.732;2023-02-28T09:28:38;5.80;99.90
59923;DHT22;45778;51.142;3.732;2023-02-28T09:31:04;5.60;99.90
59923;DHT22;45778;51.142;3.732;2023-02-28T09:33:30;5.60;99.90
59923;DHT22;45778;51.142;3.732;2023-02-28T09:36:00;5.60;99.90
59923;DHT22;45778;51.142;3.732;2023-02-28T09:38:27;5.50;99.90
59923;DHT22;45778;51.142;3.732;2023-02-28T09:40:57;5.70;99.90
59923;DHT22;45778;51.142;3.732;2023-02-28T09:43:26;5.70;99.90
59923;DHT22;45778;51.142;3.732;2023-02-28T09:46:02;5.60;99.90
59923;DHT22;45778;51.142;3.732;2023-02-28T09:48:35;5.50;99.90
59923;DHT22;45778;51.142;3.732;2023-02-28T09:54:12;5.70;99.90
59923;DHT22;45778;51.142;3.732;2023-02-28T09:56:45;5.70;99.90
59923;DHT22;45778;51.142;3.732;2023-02-28T09:59:28;5.90;99.90
59923;DHT22;45778;51.142;3.732;2023-02-28T10:02:19;6.10;99.90
59923;DHT22;45778;51.142;3.732;2023-02-28T10:04:47;6.40;99.90
59923;DHT22;45778;51.142;3.732;2023-02-28T10:10:07;6.20;99.90
59923;DHT22;45778;51.142;3.732;2023-02-28T10:12:44;6.30;99.60
59923;DHT22;45778;51.142;3.732;2023-02-28T10:15:15;6.30;98.60
59923;DHT22;45778;51.142;3.732;2023-02-28T10:17:44;6.50;98.80
59923;DHT22;45778;51.142;3.732;2023-02-28T10:20:20;6.50;98.40
59923;DHT22;45778;51.142;3.732;2023-02-28T10:22:58;6.60;97.90
59923;DHT22;45778;51.142;3.732;2023-02-28T10:25:27;6.60;96.70
59923;DHT22;45778;51.142;3.732;2023-02-28T10:28:01;6.60;95.70
59923;DHT22;45778;51.142;3.732;2023-02-28T10:30:27;6.40;95.20
59923;DHT22;45778;51.142;3.732;2023-02-28T10:32:53;6.40;95.70
59923;DHT22;45778;51.142;3.732;2023-02-28T10:35:24;6.70;94.80
59923;DHT22;45778;51.142;3.732;2023-02-28T10:37:58;6.80;94.30
59923;DHT22;45778;51.142;3.732;2023-02-28T10:40:37;7.10;94.50
59923;DHT22;45778;51.142;3.732;2023-02-28T10:43:05;7.30;93.90
59923;DHT22;45778;51.142;3.732;2023-02-28T10:45:34;7.50;93.50
59923;DHT22;45778;51.142;3.732;2023-02-28T10:55:37;7.90;92.80
59923;DHT22;45778;51.142;3.732;2023-02-28T10:58:21;7.90;92.60
59923;DHT22;45778;51.142;3.732;2023-02-28T11:00:47;8.00;92.50
59923;DHT22;45778;51.142;3.732;2023-02-28T11:03:31;8.00;92.50
59923;DHT22;45778;51.142;3.732;2023-02-28T11:05:58;8.50;92.70
59923;DHT22;45778;51.142;3.732;2023-02-28T11:08:24;8.70;92.40
59923;DHT22;45778;51.142;3.732;2023-02-28T11:10:55;9.00;91.50
59923;DHT22;45778;51.142;3.732;2023-02-28T11:13:33;9.40;91.10
59923;DHT22;45778;51.142;3.732;2023-02-28T11:16:05;9.50;90.30
59923;DHT22;45778;51.142;3.732;2023-02-28T11:21:09;9.70;90.20
59923;DHT22;45778;51.142;3.732;2023-02-28T11:23:41;9.70;90.30
59923;DHT22;45778;51.142;3.732;2023-02-28T11:26:07;10.00;89.80
59923;DHT22;45778;51.142;3.732;2023-02-28T11:28:40;9.60;90.00
59923;DHT22;45778;51.142;3.732;2023-02-28T11:33:46;9.20;89.70
59923;DHT22;45778;51.142;3.732;2023-02-28T11:36:24;9.10;89.90
59923;DHT22;45778;51.142;3.732;2023-02-28T11:38:51;9.10;89.00
59923;DHT22;45778;51.142;3.732;2023-02-28T11:42:16;9.00;89.70
59923;DHT22;45778;51.142;3.732;2023-02-28T11:46:58;9.00;90.60
59923;DHT22;45778;51.142;3.732;2023-02-28T12:08:15;9.00;88.30
59923;DHT22;45778;51.142;3.732;2023-02-28T12:16:37;9.80;86.90
59923;DHT22;45778;51.142;3.732;2023-02-28T12:19:26;10.30;85.00
59923;DHT22;45778;51.142;3.732;2023-02-28T12:27:17;12.70;80.30
59923;DHT22;45778;51.142;3.732;2023-02-28T12:29:58;13.70;77.80
59923;DHT22;45778;51.142;3.732;2023-02-28T12:32:48;14.20;72.40
59923;DHT22;45778;51.142;3.732;2023-02-28T12:35:48;14.80;68.00
59923;DHT22;45778;51.142;3.732;2023-02-28T12:38:20;14.70;66.80
59923;DHT22;45778;51.142;3.732;2023-02-28T12:41:13;15.00;64.60
59923;DHT22;45778;51.142;3.732;2023-02-28T12:43:40;15.20;63.70
59923;DHT22;45778;51.142;3.732;2023-02-28T12:46:21;16.10;62.00
59923;DHT22;45778;51.142;3.732;2023-02-28T12:48:52;16.40;60.70
59923;DHT22;45778;51.142;3.732;2023-02-28T12:51:21;16.20;59.00
59923;DHT22;45778;51.142;3.732;2023-02-28T12:54:04;16.80;57.10
59923;DHT22;45778;51.142;3.732;2023-02-28T12:59:41;17.50;54.40
59923;DHT22;45778;51.142;3.732;2023-02-28T13:10:23;18.20;51.60
59923;DHT22;45778;51.142;3.732;2023-02-28T13:12:53;18.50;51.30
59923;DHT22;45778;51.142;3.732;2023-02-28T13:15:26;18.60;49.80
59923;DHT22;45778;51.142;3.732;2023-02-28T13:17:56;18.60;50.20
59923;DHT22;45778;51.142;3.732;2023-02-28T13:20:29;18.80;49.10
59923;DHT22;45778;51.142;3.732;2023-02-28T13:22:55;19.00;48.80
59923;DHT22;45778;51.142;3.732;2023-02-28T13:27:49;19.20;46.90
59923;DHT22;45778;51.142;3.732;2023-02-28T13:33:27;20.40;46.10
59923;DHT22;45778;51.142;3.732;2023-02-28T13:36:06;20.60;45.20
59923;DHT22;45778;51.142;3.732;2023-02-28T13:38:35;21.10;45.50
59923;DHT22;45778;51.142;3.732;2023-02-28T13:46:33;20.30;43.70
59923;DHT22;45778;51.142;3.732;2023-02-28T13:55:15;20.60;43.00
59923;DHT22;45778;51.142;3.732;2023-02-28T14:08:59;19.40;42.60
59923;DHT22;45778;51.142;3.732;2023-02-28T14:11:37;19.50;42.20
59923;DHT22;45778;51.142;3.732;2023-02-28T14:14:04;19.60;42.40
59923;DHT22;45778;51.142;3.732;2023-02-28T14:16:47;19.80;42.50
59923;DHT22;45778;51.142;3.732;2023-02-28T14:19:17;20.20;42.30
59923;DHT22;45778;51.142;3.732;2023-02-28T14:38:55;20.50;42.10
59923;DHT22;45778;51.142;3.732;2023-02-28T14:41:24;20.30;41.70
59923;DHT22;45778;51.142;3.732;2023-02-28T14:43:56;20.90;41.20
59923;DHT22;45778;51.142;3.732;2023-02-28T14:46:28;21.10;40.40
59923;DHT22;45778;51.142;3.732;2023-02-28T14:48:55;21.00;40.50
59923;DHT22;45778;51.142;3.732;2023-02-28T14:51:22;21.30;41.00
59923;DHT22;45778;51.142;3.732;2023-02-28T14:53:52;21.60;41.30
59923;DHT22;45778;51.142;3.732;2023-02-28T14:56:24;22.10;40.70
59923;DHT22;45778;51.142;3.732;2023-02-28T14:58:55;22.10;39.80
59923;DHT22;45778;51.142;3.732;2023-02-28T15:01:23;22.00;39.20
59923;DHT22;45778;51.142;3.732;2023-02-28T15:03:58;21.50;40.20
59923;DHT22;45778;51.142;3.732;2023-02-28T15:06:24;20.50;40.50
59923;DHT22;45778;51.142;3.732;2023-02-28T15:09:07;20.40;40.60
59923;DHT22;45778;51.142;3.732;2023-02-28T15:11:33;20.00;41.20
59923;DHT22;45778;51.142;3.732;2023-02-28T15:14:00;20.00;41.50
59923;DHT22;45778;51.142;3.732;2023-02-28T15:19:05;20.80;40.60
59923;DHT22;45778;51.142;3.732;2023-02-28T15:21:38;21.20;40.60
59923;DHT22;45778;51.142;3.732;2023-02-28T15:24:06;21.00;40.30
59923;DHT22;45778;51.142;3.732;2023-02-28T15:26:43;20.00;40.40
59923;DHT22;45778;51.142;3.732;2023-02-28T15:29:21;20.50;40.80
59923;DHT22;45778;51.142;3.732;2023-02-28T15:32:16;20.50;40.00
59923;DHT22;45778;51.142;3.732;2023-02-28T15:34:40;20.50;40.40
59923;DHT22;45778;51.142;3.732;2023-02-28T15:42:37;19.80;41.60
59923;DHT22;45778;51.142;3.732;2023-02-28T15:45:03;20.00;41.20
59923;DHT22;45778;51.142;3.732;2023-02-28T15:47:30;20.00;41.10
59923;DHT22;45778;51.142;3.732;2023-02-28T15:50:08;20.40;41.20
59923;DHT22;45778;51.142;3.732;2023-02-28T15:52:39;20.20;41.60
59923;DHT22;45778;51.142;3.732;2023-02-28T15:55:27;20.00;41.20
59923;DHT22;45778;51.142;3.732;2023-02-28T15:58:00;19.60;41.50
59923;DHT22;45778;51.142;3.732;2023-02-28T16:00:28;19.50;41.80
59923;DHT22;45778;51.142;3.732;2023-02-28T16:02:54;18.90;41.60
59923;DHT22;45778;51.142;3.732;2023-02-28T16:07:55;18.60;43.10
59923;DHT22;45778;51.142;3.732;2023-02-28T16:10:22;18.70;42.50
59923;DHT22;45778;51.142;3.732;2023-02-28T16:12:55;19.10;42.60
59923;DHT22;45778;51.142;3.732;2023-02-28T16:15:23;19.50;42.00
59923;DHT22;45778;51.142;3.732;2023-02-28T16:17:51;20.10;42.00
59923;DHT22;45778;51.142;3.732;2023-02-28T16:22:47;19.40;41.60
59923;DHT22;45778;51.142;3.732;2023-02-28T16:25:18;19.00;41.50
59923;DHT22;45778;51.142;3.732;2023-02-28T16:27:47;18.60;42.20
59923;DHT22;45778;51.142;3.732;2023-02-28T16:30:25;18.20;42.40
59923;DHT22;45778;51.142;3.732;2023-02-28T16:32:54;17.70;42.90
59923;DHT22;45778;51.142;3.732;2023-02-28T16:35:21;16.50;43.70
59923;DHT22;45778;51.142;3.732;2023-02-28T16:37:47;15.50;44.80
59923;DHT22;45778;51.142;3.732;2023-02-28T16:40:24;14.00;46.70
59923;DHT22;45778;51.142;3.732;2023-02-28T16:42:57;13.10;48.30
59923;DHT22;45778;51.142;3.732;2023-02-28T16:45:26;12.00;49.60
59923;DHT22;45778;51.142;3.732;2023-02-28T16:47:53;10.90;51.20
59923;DHT22;45778;51.142;3.732;2023-02-28T16:50:25;10.50;52.80
59923;DHT22;45778;51.142;3.732;2023-02-28T16:52:51;10.40;53.30
59923;DHT22;45778;51.142;3.732;2023-02-28T16:55:21;10.80;52.90
59923;DHT22;45778;51.142;3.732;2023-02-28T16:57:53;11.00;52.40
59923;DHT22;45778;51.142;3.732;2023-02-28T17:00:19;11.00;52.30
59923;DHT22;45778;51.142;3.732;2023-02-28T17:02:44;10.40;53.00
59923;DHT22;45778;51.142;3.732;2023-02-28T17:05:11;9.60;55.10
59923;DHT22;45778;51.142;3.732;2023-02-28T17:07:38;9.10;55.80
59923;DHT22;45778;51.142;3.732;2023-02-28T17:10:25;8.70;56.60
59923;DHT22;45778;51.142;3.732;2023-02-28T17:12:51;8.10;58.30
59923;DHT22;45778;51.142;3.732;2023-02-28T17:15:19;7.60;58.70
59923;DHT22;45778;51.142;3.732;2023-02-28T17:17:45;7.20;60.00
59923;DHT22;45778;51.142;3.732;2023-02-28T17:20:14;7.00;61.50
59923;DHT22;45778;51.142;3.732;2023-02-28T17:22:40;7.00;61.40
59923;DHT22;45778;51.142;3.732;2023-02-28T17:25:07;6.70;61.80
59923;DHT22;45778;51.142;3.732;2023-02-28T17:27:33;6.40;62.50
59923;DHT22;45778;51.142;3.732;2023-02-28T17:29:58;6.30;63.00
59923;DHT22;45778;51.142;3.732;2023-02-28T17:32:25;6.20;63.30
59923;DHT22;45778;51.142;3.732;2023-02-28T17:34:51;6.00;64.90
59923;DHT22;45778;51.142;3.732;2023-02-28T17:37:17;5.90;64.90
59923;DHT22;45778;51.142;3.732;2023-02-28T17:39:42;5.80;65.00
59923;DHT22;45778;51.142;3.732;2023-02-28T17:42:08;5.60;65.70
59923;DHT22;45778;51.142;3.732;2023-02-28T17:44:34;5.50;66.40
59923;DHT22;45778;51.142;3.732;2023-02-28T17:46:59;5.40;66.60
59923;DHT22;45778;51.142;3.732;2023-02-28T17:49:25;5.30;67.10
59923;DHT22;45778;51.142;3.732;2023-02-28T17:51:51;5.20;67.50
59923;DHT22;45778;51.142;3.732;2023-02-28T17:54:17;5.20;67.60
59923;DHT22;45778;51.142;3.732;2023-02-28T17:56:43;5.20;67.90
59923;DHT22;45778;51.142;3.732;2023-02-28T17:59:09;5.30;68.70
59923;DHT22;45778;51.142;3.732;2023-02-28T18:01:35;5.20;68.10
59923;DHT22;45778;51.142;3.732;2023-02-28T18:04:01;5.10;69.10
59923;DHT22;45778;51.142;3.732;2023-02-28T18:06:34;4.90;69.90
59923;DHT22;45778;51.142;3.732;2023-02-28T18:09:00;4.70;70.80
59923;DHT22;45778;51.142;3.732;2023-02-28T18:11:26;4.60;71.50
59923;DHT22;45778;51.142;3.732;2023-02-28T18:14:06;4.60;71.70
59923;DHT22;45778;51.142;3.732;2023-02-28T18:16:32;4.80;70.60
59923;DHT22;45778;51.142;3.732;2023-02-28T18:18:58;4.70;70.50
59923;DHT22;45778;51.142;3.732;2023-02-28T18:21:23;4.80;70.40
59923;DHT22;45778;51.142;3.732;2023-02-28T18:23:49;4.80;70.30
59923;DHT22;45778;51.142;3.732;2023-02-28T18:26:18;4.60;70.40
59923;DHT22;45778;51.142;3.732;2023-02-28T18:28:44;4.60;70.80
59923;DHT22;45778;51.142;3.732;2023-02-28T18:31:12;4.60;70.80
59923;DHT22;45778;51.142;3.732;2023-02-28T18:33:44;4.70;71.10
59923;DHT22;45778;51.142;3.732;2023-02-28T18:36:12;4.50;71.50